createdAt,value
2022-11-26T00:01:21.387Z,101163.28
2022-11-26T00:05:24.129Z,101164.22
2022-11-26T00:09:26.100Z,101160.13
2022-11-26T00:13:30.430Z,101167.78
2022-11-26T00:17:32.299Z,101174.75
2022-11-26T00:21:38.189Z,101174.69
2022-11-26T00:25:44.129Z,101169.47
2022-11-26T00:29:46.128Z,101173.03
2022-11-26T00:33:48.210Z,101185.03
2022-11-26T00:37:58.867Z,101178.09
2022-11-26T00:42:00.719Z,101182.53
2022-11-26T00:46:02.828Z,101183.22
2022-11-26T00:50:05.313Z,101185.88
2022-11-26T00:54:12.217Z,101180.69
2022-11-26T00:58:23.875Z,101181.56
2022-11-26T01:02:25.953Z,101184.19
2022-11-26T01:06:32.618Z,101181.53
2022-11-26T01:10:34.692Z,101184.09
2022-11-26T01:14:36.675Z,101184.94
2022-11-26T01:18:38.965Z,101176.34
2022-11-26T01:22:40.731Z,101182.34
2022-11-26T01:26:44.624Z,101177.25
2022-11-26T01:30:46.804Z,101181.50
2022-11-26T01:34:48.797Z,101179.78
2022-11-26T01:38:52.730Z,101169.38
2022-11-26T01:43:11.028Z,101178.91
2022-11-26T01:47:29.169Z,101190.06
2022-11-26T01:51:31.175Z,101186.72
2022-11-26T01:55:43.597Z,101185.66
2022-11-26T01:59:59.246Z,101190.00
2022-11-26T02:04:20.396Z,101188.16
2022-11-26T02:08:24.960Z,101180.44
2022-11-26T02:12:27.198Z,101185.63
2022-11-26T02:17:10.860Z,101184.78
2022-11-26T02:21:23.887Z,101190.75
2022-11-26T02:25:41.116Z,101199.47
2022-11-26T02:30:00.379Z,101193.34
2022-11-26T02:34:18.651Z,101199.44
2022-11-26T02:38:26.341Z,101196.00
2022-11-26T02:42:31.486Z,101202.03
2022-11-26T02:46:33.348Z,101191.72
2022-11-26T02:50:40.737Z,101201.16
2022-11-26T02:54:45.069Z,101189.16
2022-11-26T02:58:49.396Z,101201.25
2022-11-26T03:03:00.333Z,101202.06
2022-11-26T03:07:05.453Z,101204.66
2022-11-26T03:11:07.264Z,101211.56
2022-11-26T03:15:09.662Z,101209.84
2022-11-26T03:19:11.712Z,101208.16
2022-11-26T03:23:13.704Z,101207.28
2022-11-26T03:27:15.609Z,101208.97
2022-11-26T03:31:17.547Z,101205.59
2022-11-26T03:35:19.331Z,101208.97
2022-11-26T03:39:21.554Z,101211.59
2022-11-26T03:43:23.540Z,101221.94
2022-11-26T03:47:25.449Z,101221.06
2022-11-26T03:51:27.280Z,101230.44
2022-11-26T03:55:29.141Z,101230.44
2022-11-26T03:59:30.834Z,101231.38
2022-11-26T04:03:32.949Z,101233.03
2022-11-26T04:07:34.657Z,101234.81
2022-11-26T04:11:36.777Z,101231.31
2022-11-26T04:15:38.683Z,101247.84
2022-11-26T04:19:40.728Z,101245.19
2022-11-26T04:23:42.317Z,101241.72
2022-11-26T04:27:44.242Z,101253.75
2022-11-26T04:31:45.965Z,101249.38
2022-11-26T04:35:47.982Z,101251.19
2022-11-26T04:39:49.751Z,101247.72
2022-11-26T04:43:51.664Z,101250.28
2022-11-26T04:47:53.799Z,101256.28
2022-11-26T04:51:55.851Z,101260.72
2022-11-26T04:55:57.516Z,101265.06
2022-11-26T04:59:59.366Z,101268.50
2022-11-26T05:04:01.026Z,101266.78
2022-11-26T05:08:03.074Z,101271.06
2022-11-26T05:12:05.046Z,101279.69
2022-11-26T05:16:07.369Z,101282.25
2022-11-26T05:20:09.945Z,101277.94
2022-11-26T05:24:11.862Z,101286.53
2022-11-26T05:28:14.061Z,101290.00
2022-11-26T05:32:16.164Z,101294.28
2022-11-26T05:36:17.814Z,101289.88
2022-11-26T05:40:19.863Z,101297.75
2022-11-26T05:44:21.549Z,101295.09
2022-11-26T05:48:23.392Z,101300.28
2022-11-26T05:52:25.162Z,101302.94
2022-11-26T05:56:27.038Z,101305.59
2022-11-26T06:00:29.608Z,101307.28
2022-11-26T06:04:32.746Z,101319.47
2022-11-26T06:08:34.657Z,101323.66
2022-11-26T06:12:36.694Z,101330.59
2022-11-26T06:16:38.461Z,101325.44
2022-11-26T06:20:40.535Z,101337.63
2022-11-26T06:24:42.245Z,101338.53
2022-11-26T06:28:44.573Z,101342.00
2022-11-26T06:32:46.264Z,101346.34
2022-11-26T06:36:48.153Z,101349.69
2022-11-26T06:40:57.984Z,101354.03
2022-11-26T06:45:00.289Z,101360.03
2022-11-26T06:49:03.001Z,101348.81
2022-11-26T06:53:04.996Z,101362.72
2022-11-26T06:57:06.768Z,101367.91
2022-11-26T07:01:18.279Z,101373.97
2022-11-26T07:05:20.069Z,101377.50
2022-11-26T07:09:21.989Z,101374.84
2022-11-26T07:13:23.756Z,101361.88
2022-11-26T07:17:28.237Z,101369.72
2022-11-26T07:21:30.778Z,101368.88
2022-11-26T07:25:32.699Z,101381.94
2022-11-26T07:29:34.444Z,101380.13
2022-11-26T07:33:36.695Z,101386.22
2022-11-26T07:37:38.411Z,101389.72
2022-11-26T07:41:40.416Z,101399.09
2022-11-26T07:45:42.165Z,101408.66
2022-11-26T07:49:44.130Z,101418.97
2022-11-26T07:53:46.561Z,101418.13
2022-11-26T07:57:48.458Z,101419.84
2022-11-26T08:01:50.616Z,101417.34
2022-11-26T08:05:52.560Z,101421.63
2022-11-26T08:09:54.552Z,101414.72
2022-11-26T08:13:59.873Z,101425.03
2022-11-26T08:18:01.866Z,101431.13
2022-11-26T08:22:03.740Z,101426.72
2022-11-26T08:26:32.682Z,101434.50
2022-11-26T08:30:30.936Z,101420.00
2022-11-26T08:34:33.697Z,101426.03
2022-11-26T08:38:35.675Z,101431.94
2022-11-26T08:42:37.757Z,101428.47
2022-11-26T08:46:41.338Z,101431.00
2022-11-26T08:50:43.352Z,101449.94
2022-11-26T08:54:45.681Z,101440.34
2022-11-26T08:58:49.073Z,101442.91
2022-11-26T09:02:50.886Z,101445.47
2022-11-26T09:06:52.915Z,101442.91
2022-11-26T09:10:55.989Z,101447.28
2022-11-26T09:14:57.721Z,101446.41
2022-11-26T09:19:01.202Z,101453.31
2022-11-26T09:23:02.976Z,101449.91
2022-11-26T09:27:08.026Z,101451.63
2022-11-26T09:31:10.077Z,101450.75
2022-11-26T09:35:12.013Z,101445.44
2022-11-26T09:39:14.366Z,101443.56
2022-11-26T09:43:32.387Z,101453.03
2022-11-26T09:47:41.676Z,101455.53
2022-11-26T09:51:46.739Z,101455.69
2022-11-26T09:55:51.820Z,101459.16
2022-11-26T09:59:56.054Z,101462.53
2022-11-26T10:03:58.907Z,101464.41
2022-11-26T10:08:32.993Z,101461.84
2022-11-26T10:13:03.530Z,101464.44
2022-11-26T10:17:28.323Z,101462.75
2022-11-26T10:22:03.552Z,101462.72
2022-11-26T10:26:28.830Z,101473.88
2022-11-26T10:30:30.832Z,101482.56
2022-11-26T10:34:41.741Z,101477.47
2022-11-26T10:38:43.613Z,101479.13
2022-11-26T10:43:12.715Z,101480.06
2022-11-26T10:47:30.844Z,101484.22
2022-11-26T10:51:33.455Z,101485.25
2022-11-26T10:55:41.270Z,101485.25
2022-11-26T10:59:51.288Z,101488.69
2022-11-26T11:04:13.864Z,101484.38
2022-11-26T11:08:32.002Z,101488.63
2022-11-26T11:12:38.973Z,101488.63
2022-11-26T11:16:46.038Z,101490.47
2022-11-26T11:20:54.811Z,101499.09
2022-11-26T11:24:59.171Z,101500.91
2022-11-26T11:29:01.124Z,101494.81
2022-11-26T11:33:23.270Z,101508.69
2022-11-26T11:37:25.309Z,101506.94
2022-11-26T11:41:33.050Z,101510.47
2022-11-26T11:45:47.352Z,101521.59
2022-11-26T11:50:18.260Z,101524.19
2022-11-26T11:54:40.355Z,101524.16
2022-11-26T11:58:56.079Z,101517.31
2022-11-26T12:03:10.782Z,101523.25
2022-11-26T12:07:38.746Z,101529.31
2022-11-26T12:11:56.691Z,101531.00
2022-11-26T12:16:05.665Z,101529.38
2022-11-26T12:20:19.844Z,101531.13
2022-11-26T12:24:45.842Z,101533.63
2022-11-26T12:29:18.141Z,101535.34
2022-11-26T12:33:27.072Z,101542.28
2022-11-26T12:37:32.105Z,101546.56
2022-11-26T12:41:42.587Z,101556.13
2022-11-26T12:45:56.642Z,101544.91
2022-11-26T12:50:23.959Z,101552.69
2022-11-26T12:54:33.597Z,101558.72
2022-11-26T12:59:12.467Z,101565.63
2022-11-26T13:03:18.381Z,101562.28
2022-11-26T13:07:41.838Z,101559.63
2022-11-26T13:12:15.084Z,101570.84
2022-11-26T13:16:19.381Z,101584.66
2022-11-26T13:20:36.825Z,101580.47
2022-11-26T13:25:27.565Z,101586.47
2022-11-26T13:29:57.572Z,101583.03
2022-11-26T13:34:11.202Z,101576.97
2022-11-26T13:38:19.240Z,101577.84
2022-11-26T13:42:31.952Z,101575.34
2022-11-26T13:46:55.899Z,101594.28
2022-11-26T13:51:09.151Z,101594.25
2022-11-26T13:55:19.041Z,101593.44
2022-11-26T13:59:28.373Z,101603.78
2022-11-26T14:03:48.730Z,101604.63
2022-11-26T14:07:50.575Z,101616.72
2022-11-26T14:11:57.339Z,101622.78
2022-11-26T14:16:04.499Z,101617.59
2022-11-26T14:20:07.412Z,101619.31
2022-11-26T14:24:09.111Z,101618.44
2022-11-26T14:28:11.231Z,101625.38
2022-11-26T14:32:22.418Z,101627.94
2022-11-26T14:36:29.466Z,101629.69
2022-11-26T14:40:34.311Z,101622.81
2022-11-26T14:44:36.433Z,101629.72
2022-11-26T14:48:44.550Z,101620.19
2022-11-26T14:52:46.902Z,101633.16
2022-11-26T14:56:49.183Z,101635.75
2022-11-26T15:01:23.901Z,101640.06
2022-11-26T15:05:28.976Z,101633.16
2022-11-26T15:09:30.649Z,101644.41
2022-11-26T15:13:39.565Z,101641.81
2022-11-26T15:17:46.367Z,101653.00
2022-11-26T15:21:48.446Z,101646.09
2022-11-26T15:25:51.525Z,101663.34
2022-11-26T15:29:53.461Z,101664.22
2022-11-26T15:33:55.323Z,101663.34
2022-11-26T15:37:57.747Z,101668.53
2022-11-26T15:42:07.791Z,101672.84
2022-11-26T15:46:16.466Z,101659.88
2022-11-26T15:50:24.480Z,101667.66
2022-11-26T15:54:49.783Z,101670.25
2022-11-26T15:58:57.391Z,101677.16
2022-11-26T16:02:59.704Z,101674.56
2022-11-26T16:07:29.183Z,101676.28
2022-11-26T16:11:36.539Z,101676.28
2022-11-26T16:15:48.230Z,101678.00
2022-11-26T16:19:56.435Z,101680.59
2022-11-26T16:24:06.905Z,101680.59
2022-11-26T16:28:11.797Z,101692.66
2022-11-26T16:32:15.731Z,101695.25
2022-11-26T16:36:19.085Z,101693.53
2022-11-26T16:40:21.489Z,101705.59
2022-11-26T16:44:23.402Z,101698.69
2022-11-26T16:48:27.333Z,101698.69
2022-11-26T16:52:29.431Z,101709.94
2022-11-26T16:56:39.735Z,101714.25
2022-11-26T17:00:41.712Z,101717.69
2022-11-26T17:04:43.706Z,101726.31
2022-11-26T17:08:49.700Z,101731.47
2022-11-26T17:13:08.168Z,101736.66
2022-11-26T17:17:12.655Z,101750.47
2022-11-26T17:21:14.892Z,101747.00
2022-11-26T17:25:16.588Z,101755.66
2022-11-26T17:29:18.528Z,101749.59
2022-11-26T17:33:20.286Z,101755.63
2022-11-26T17:37:28.377Z,101757.34
2022-11-26T17:41:30.067Z,101764.22
2022-11-26T17:45:32.072Z,101767.69
2022-11-26T17:49:33.745Z,101764.22
2022-11-26T17:53:35.802Z,101774.59
2022-11-26T17:57:37.454Z,101773.72
2022-11-26T18:01:39.517Z,101772.00
2022-11-26T18:05:42.411Z,101777.19
2022-11-26T18:09:44.743Z,101768.56
2022-11-26T18:13:46.360Z,101781.50
2022-11-26T18:17:50.912Z,101770.25
2022-11-26T18:21:52.918Z,101777.16
2022-11-26T18:25:54.862Z,101774.59
2022-11-26T18:29:56.740Z,101772.03
2022-11-26T18:33:59.376Z,101772.88
2022-11-26T18:38:00.987Z,101786.69
2022-11-26T18:42:35.476Z,101809.97
2022-11-26T18:46:25.586Z,101818.59
2022-11-26T18:50:27.565Z,101820.31
2022-11-26T18:54:29.265Z,101817.72
2022-11-26T18:58:31.186Z,101817.72
2022-11-26T19:02:35.813Z,101807.38
2022-11-26T19:06:39.312Z,101806.50
2022-11-26T19:10:41.423Z,101810.81
2022-11-26T19:14:43.823Z,101821.16
2022-11-26T19:18:46.619Z,101816.00
2022-11-26T19:22:48.704Z,101815.97
2022-11-26T19:26:50.378Z,101815.13
2022-11-26T19:31:08.113Z,101826.28
2022-11-26T19:35:10.740Z,101822.91
2022-11-26T19:39:12.695Z,101817.69
2022-11-26T19:43:14.420Z,101821.13
2022-11-26T19:47:16.476Z,101823.69
2022-11-26T19:51:20.080Z,101821.13
2022-11-26T19:55:22.138Z,101835.81
2022-11-26T19:59:23.929Z,101832.34
2022-11-26T20:03:27.063Z,101828.03
2022-11-26T20:07:28.776Z,101835.78
2022-11-26T20:11:31.333Z,101837.50
2022-11-26T20:15:37.354Z,101843.59
2022-11-26T20:19:39.830Z,101843.59
2022-11-26T20:23:41.953Z,101847.03
2022-11-26T20:27:44.212Z,101850.47
2022-11-26T20:31:48.082Z,101844.47
2022-11-26T20:35:50.551Z,101853.94
2022-11-26T20:39:52.138Z,101849.66
2022-11-26T20:43:59.131Z,101842.72
2022-11-26T20:48:01.367Z,101841.00
2022-11-26T20:52:03.698Z,101844.50
2022-11-26T20:56:06.147Z,101842.72
2022-11-26T21:00:08.615Z,101832.38
2022-11-26T21:04:10.286Z,101828.97
2022-11-26T21:08:12.254Z,101831.56
2022-11-26T21:12:14.744Z,101829.81
2022-11-26T21:16:16.935Z,101835.00
2022-11-26T21:20:18.703Z,101830.69
2022-11-26T21:24:20.801Z,101831.56
2022-11-26T21:28:22.474Z,101835.84
2022-11-26T21:32:24.488Z,101842.78
2022-11-26T21:36:27.522Z,101846.19
2022-11-26T21:40:30.186Z,101847.09
2022-11-26T21:44:32.300Z,101855.69
2022-11-26T21:48:35.693Z,101868.63
2022-11-26T21:52:38.029Z,101876.41
2022-11-26T21:56:40.118Z,101873.81
2022-11-26T22:00:43.226Z,101870.38
2022-11-26T22:04:45.220Z,101868.59
2022-11-26T22:08:49.987Z,101866.88
2022-11-26T22:12:51.909Z,101871.13
2022-11-26T22:16:53.755Z,101881.47
2022-11-26T22:20:55.916Z,101876.34
2022-11-26T22:24:57.522Z,101884.91
2022-11-26T22:28:59.976Z,101878.84
2022-11-26T22:33:03.593Z,101884.94
2022-11-26T22:37:05.601Z,101896.97
2022-11-26T22:41:10.471Z,101904.75
2022-11-26T22:45:12.472Z,101900.41
2022-11-26T22:49:16.015Z,101894.34
2022-11-26T22:53:18.357Z,101892.66
2022-11-26T22:57:25.150Z,101896.97
2022-11-26T23:01:30.796Z,101890.91
2022-11-26T23:05:36.987Z,101883.19
2022-11-26T23:09:43.783Z,101884.09
2022-11-26T23:13:50.085Z,101878.06
2022-11-26T23:17:51.755Z,101875.50
2022-11-26T23:21:53.893Z,101885.00
2022-11-26T23:25:55.607Z,101882.38
2022-11-26T23:29:58.372Z,101873.78
2022-11-26T23:34:01.133Z,101878.06
2022-11-26T23:38:02.938Z,101872.91
2022-11-26T23:42:05.076Z,101878.94
2022-11-26T23:46:11.522Z,101876.38
2022-11-26T23:50:14.380Z,101880.66
2022-11-26T23:54:16.091Z,101887.59
2022-11-26T23:58:19.193Z,101883.28
